Time;durP1;ratioP1;P1;durP2;ratioP2;P2;SDS_P1;SDS_P2;PMS_P1;PMS_P2;Temp;Humidity;BMP_temperature;BMP_pressure;BME280_temperature;BME280_humidity;BME280_pressure;Samples;Min_cycle;Max_cycle;Signal;HPM_P1;HPM_P2
2022/06/17 00:07:15;;;;;;;3.47;1.80;;;20.00;54.10;;;;;;20836573;28;20262;-69
2022/06/17 00:17:17;;;;;;;3.73;1.60;;;19.90;54.30;;;;;;20833446;28;20776;-71
2022/06/17 00:27:19;;;;;;;4.23;1.80;;;19.80;54.80;;;;;;20833829;28;20274;-71
2022/06/17 00:37:20;;;;;;;3.10;1.63;;;19.70;55.30;;;;;;20831493;28;20205;-68
2022/06/17 00:47:53;;;;;;;3.00;1.90;;;19.50;56.00;;;;;;20835271;28;20382;-70
2022/06/17 00:57:57;;;;;;;3.00;1.70;;;19.40;56.80;;;;;;20833118;28;20215;-73
2022/06/17 01:08:12;;;;;;;3.33;1.60;;;19.20;57.50;;;;;;20831865;28;20764;-75
2022/06/17 01:18:14;;;;;;;4.70;1.60;;;18.90;57.90;;;;;;20830291;28;20619;-74
2022/06/17 01:28:17;;;;;;;3.17;1.80;;;18.90;57.90;;;;;;20832580;28;20245;-66
2022/06/17 01:38:22;;;;;;;4.53;1.73;;;18.70;57.90;;;;;;20834353;28;20213;-69
2022/06/17 01:48:27;;;;;;;3.63;1.67;;;18.60;58.40;;;;;;20834297;28;20249;-74
2022/06/17 01:58:41;;;;;;;3.73;1.70;;;18.70;58.90;;;;;;20833560;28;20627;-69
2022/06/17 02:08:43;;;;;;;2.40;1.70;;;18.50;59.50;;;;;;20843606;28;20695;-75
2022/06/17 02:18:45;;;;;;;2.20;1.73;;;18.20;59.80;;;;;;20855075;28;20221;-77
2022/06/17 02:28:49;;;;;;;3.20;1.60;;;18.10;60.10;;;;;;20861206;28;20241;-77
2022/06/17 02:38:52;;;;;;;3.27;1.90;;;17.80;60.90;;;;;;20856433;28;20237;-78
2022/06/17 02:48:57;;;;;;;3.83;1.70;;;17.70;61.40;;;;;;20855656;28;20236;-76
2022/06/17 02:59:33;;;;;;;2.77;1.63;;;17.50;61.70;;;;;;20895877;28;20209;-74
2022/06/17 03:09:38;;;;;;;3.23;1.80;;;17.40;62.20;;;;;;20864113;28;20323;-72
2022/06/17 03:19:40;;;;;;;2.27;1.67;;;17.20;63.00;;;;;;20875699;28;20192;-75
2022/06/17 03:29:44;;;;;;;2.77;1.67;;;17.10;63.50;;;;;;20887662;28;20330;-77
2022/06/17 03:39:57;;;;;;;2.23;1.57;;;17.00;63.80;;;;;;20895003;28;20235;-72
2022/06/17 03:50:05;;;;;;;3.90;1.80;;;16.90;64.20;;;;;;20869691;28;20270;-72
2022/06/17 04:00:19;;;;;;;3.67;2.10;;;16.90;64.80;;;;;;20871521;28;20228;-76
2022/06/17 04:10:24;;;;;;;4.33;2.30;;;16.90;65.60;;;;;;20876866;28;20236;-66
2022/06/17 04:21:01;;;;;;;2.40;1.80;;;17.00;66.10;;;;;;20921186;28;20231;-70
2022/06/17 04:31:06;;;;;;;4.93;2.00;;;16.90;66.80;;;;;;20938523;28;20229;-75
2022/06/17 04:41:11;;;;;;;28.77;2.10;;;17.00;66.90;;;;;;20945454;28;20778;-75
2022/06/17 04:51:13;;;;;;;5.77;2.50;;;17.20;66.70;;;;;;20955231;28;20326;-69
2022/06/17 05:01:21;;;;;;;7.93;2.70;;;17.30;66.70;;;;;;20923969;28;20203;-70
2022/06/17 05:11:34;;;;;;;8.23;4.40;;;17.40;66.40;;;;;;20912292;28;20670;-68
2022/06/17 05:21:36;;;;;;;7.93;3.17;;;17.80;66.30;;;;;;20911390;28;20200;-72
2022/06/17 05:31:38;;;;;;;20.90;2.80;;;17.90;65.80;;;;;;20909459;28;20719;-69
2022/06/17 05:41:40;;;;;;;7.67;3.37;;;18.10;65.90;;;;;;20923880;28;20228;-67
2022/06/17 05:51:41;;;;;;;4.33;2.17;;;18.40;65.40;;;;;;20927493;28;20237;-68
2022/06/17 06:01:44;;;;;;;3.57;2.00;;;18.60;64.80;;;;;;20933661;28;20205;-66
2022/06/17 06:11:46;;;;;;;2.37;2.10;;;18.80;64.10;;;;;;20945222;28;20300;-66
2022/06/17 06:21:47;;;;;;;8.03;3.30;;;18.80;62.30;;;;;;20940770;28;20389;-66
2022/06/17 06:31:49;;;;;;;8.63;2.53;;;19.00;61.90;;;;;;20944692;28;20231;-67
2022/06/17 06:41:51;;;;;;;14.40;2.33;;;19.20;61.70;;;;;;20938588;28;20238;-69
2022/06/17 06:51:52;;;;;;;10.67;2.97;;;19.50;61.20;;;;;;20923388;28;20239;-65
2022/06/17 07:01:54;;;;;;;7.00;3.10;;;19.80;60.90;;;;;;20920433;28;20229;-65
2022/06/17 07:11:56;;;;;;;5.23;2.80;;;20.20;60.70;;;;;;20920044;28;20327;-66
2022/06/17 07:21:58;;;;;;;2.90;1.83;;;20.50;60.20;;;;;;20921234;28;20211;-64
2022/06/17 07:32:00;;;;;;;6.80;2.33;;;20.80;59.80;;;;;;20937207;28;20254;-69
2022/06/17 07:42:03;;;;;;;3.90;1.60;;;21.10;59.00;;;;;;20923578;28;20282;-71
2022/06/17 07:52:05;;;;;;;4.40;1.50;;;21.40;57.50;;;;;;20916965;28;20239;-69
2022/06/17 08:02:07;;;;;;;5.97;3.07;;;21.70;56.00;;;;;;20913957;28;20208;-74
2022/06/17 08:12:11;;;;;;;3.63;1.70;;;21.90;55.20;;;;;;20916160;28;20240;-71
2022/06/17 08:22:19;;;;;;;3.97;2.00;;;22.20;54.30;;;;;;20921715;28;20245;-68
2022/06/17 08:43:07;;;;;;;4.40;1.80;;;22.60;52.60;;;;;;20913568;28;20574;-69
2022/06/17 08:53:37;;;;;;;4.17;2.37;;;22.80;52.20;;;;;;20912595;28;20215;-68
2022/06/17 09:03:57;;;;;;;4.50;2.10;;;23.00;51.60;;;;;;20909820;28;20232;-68
2022/06/17 09:14:22;;;;;;;2.17;1.50;;;23.30;51.00;;;;;;20920007;28;20659;-78
2022/06/17 09:24:28;;;;;;;1.90;1.57;;;23.40;50.30;;;;;;20928065;28;20634;-65
2022/06/17 09:34:49;;;;;;;2.60;1.50;;;23.60;49.90;;;;;;20927744;28;20336;-70
2022/06/17 09:45:06;;;;;;;4.67;1.90;;;23.70;49.50;;;;;;20961498;28;20239;-72
2022/06/17 09:55:16;;;;;;;7.43;1.60;;;23.90;49.00;;;;;;20957777;28;20246;-70
2022/06/17 10:05:41;;;;;;;3.70;1.70;;;24.10;48.70;;;;;;20926851;28;20239;-69
2022/06/17 10:26:52;;;;;;;6.70;1.53;;;24.40;47.70;;;;;;20944604;28;20263;-65
2022/06/17 10:36:59;;;;;;;5.60;1.60;;;24.70;47.10;;;;;;20922537;28;20223;-69
2022/06/17 10:47:23;;;;;;;3.73;2.17;;;24.90;46.10;;;;;;20922142;28;20301;-66
2022/06/17 10:57:29;;;;;;;3.00;1.60;;;25.00;45.70;;;;;;20920068;28;20207;-71
2022/06/17 11:07:39;;;;;;;4.50;1.30;;;25.10;45.60;;;;;;20920073;28;20227;-73
2022/06/17 11:17:48;;;;;;;2.17;1.30;;;25.30;44.70;;;;;;20919361;28;20200;-69
2022/06/17 11:27:54;;;;;;;1.93;1.37;;;25.40;44.30;;;;;;20917343;28;20297;-66
2022/06/17 11:37:58;;;;;;;2.87;1.20;;;25.40;43.90;;;;;;20916845;28;20208;-64
2022/06/17 11:48:11;;;;;;;2.37;1.30;;;25.50;43.50;;;;;;20910779;28;20606;-64
2022/06/17 11:58:17;;;;;;;1.67;1.10;;;25.60;42.90;;;;;;20911355;28;20655;-70
2022/06/17 12:08:37;;;;;;;4.83;1.63;;;25.80;42.20;;;;;;20913614;28;20368;-70
2022/06/17 12:18:43;;;;;;;1.70;1.07;;;26.00;42.30;;;;;;20912468;28;20656;-67
2022/06/17 12:29:09;;;;;;;2.53;2.13;;;26.30;41.00;;;;;;20912584;28;20644;-70
2022/06/17 12:39:28;;;;;;;4.07;1.50;;;26.50;40.00;;;;;;20912036;28;20227;-71
2022/06/17 13:00:18;;;;;;;2.27;1.90;;;26.60;39.50;;;;;;20914057;28;20203;-68
2022/06/17 13:10:49;;;;;;;7.70;2.77;;;26.60;39.40;;;;;;20926097;28;20255;-73
2022/06/17 13:21:11;;;;;;;6.70;2.10;;;26.70;41.10;;;;;;20939497;28;20602;-71
2022/06/17 13:31:25;;;;;;;9.83;2.40;;;26.60;42.50;;;;;;20980276;28;20227;-70
2022/06/17 13:41:53;;;;;;;15.77;2.87;;;26.70;43.90;;;;;;20980055;28;20231;-66
2022/06/17 13:52:06;;;;;;;3.77;1.60;;;26.70;45.90;;;;;;20909693;28;20301;-70
2022/06/17 14:02:25;;;;;;;2.37;1.50;;;26.80;42.90;;;;;;20922255;28;20200;-67
2022/06/17 14:12:47;;;;;;;1.87;1.20;;;26.80;40.40;;;;;;20925519;28;20231;-65
2022/06/17 14:23:11;;;;;;;1.77;1.40;;;26.90;39.20;;;;;;20924919;28;20412;-70
2022/06/17 14:33:19;;;;;;;3.60;2.00;;;27.10;38.20;;;;;;20923708;28;20240;-65
2022/06/17 14:43:24;;;;;;;3.30;1.10;;;27.30;37.70;;;;;;20941684;28;20232;-66
2022/06/17 14:53:28;;;;;;;2.07;1.10;;;27.20;37.40;;;;;;20934129;28;20695;-65
2022/06/17 15:03:36;;;;;;;3.28;1.30;;;27.40;37.10;;;;;;20921018;28;20220;-66
2022/06/17 15:24:25;;;;;;;6.75;1.30;;;27.80;37.40;;;;;;20919558;28;20622;-65
2022/06/17 15:34:33;;;;;;;1.27;1.08;;;28.00;37.50;;;;;;20918637;28;20203;-65
2022/06/17 15:44:37;;;;;;;1.75;1.10;;;27.90;37.50;;;;;;20917849;28;20632;-65
2022/06/17 15:54:47;;;;;;;1.23;1.13;;;28.20;36.40;;;;;;20916728;28;20221;-67
2022/06/17 16:04:49;;;;;;;2.13;1.10;;;28.70;36.00;;;;;;20914650;28;20240;-74
2022/06/17 16:14:58;;;;;;;1.15;1.00;;;28.50;36.40;;;;;;20915040;28;20690;-68
2022/06/17 16:25:04;;;;;;;2.22;1.33;;;28.80;36.20;;;;;;20915238;28;20235;-66
2022/06/17 16:35:26;;;;;;;7.10;1.40;;;28.60;36.30;;;;;;20914325;28;20261;-70
2022/06/17 16:45:31;;;;;;;3.75;2.30;;;28.40;36.70;;;;;;20913617;28;20243;-70
2022/06/17 16:55:34;;;;;;;2.42;1.60;;;28.10;36.90;;;;;;20912794;28;20200;-71
2022/06/17 17:05:37;;;;;;;3.00;1.30;;;28.00;37.20;;;;;;20912668;28;20227;-66
2022/06/17 17:15:41;;;;;;;4.13;1.60;;;27.90;38.50;;;;;;20911612;28;20307;-67
2022/06/17 17:25:46;;;;;;;4.32;1.40;;;28.00;39.30;;;;;;20911894;28;20231;-72
2022/06/17 17:35:49;;;;;;;2.77;1.50;;;28.00;39.80;;;;;;20921525;28;20238;-75
2022/06/17 17:45:52;;;;;;;1.80;1.20;;;27.70;40.10;;;;;;20926854;28;20247;-66
2022/06/17 17:55:54;;;;;;;3.50;1.20;;;27.60;40.60;;;;;;20926450;28;20208;-65
2022/06/17 18:05:58;;;;;;;4.30;1.30;;;27.50;41.00;;;;;;20926351;28;20235;-66
2022/06/17 18:16:03;;;;;;;1.85;1.40;;;27.50;41.10;;;;;;20931839;28;20240;-68
2022/06/17 18:26:07;;;;;;;2.57;1.20;;;27.20;41.50;;;;;;20934081;28;20267;-75
2022/06/17 18:36:13;;;;;;;1.23;0.90;;;27.00;42.00;;;;;;20922393;28;20196;-67
2022/06/17 18:46:15;;;;;;;2.87;1.50;;;26.80;42.60;;;;;;20920306;28;20243;-71
2022/06/17 18:56:17;;;;;;;6.97;2.10;;;26.50;43.00;;;;;;20921722;28;20208;-75
2022/06/17 19:06:20;;;;;;;3.30;1.10;;;26.20;44.20;;;;;;20920884;28;20239;-73
2022/06/17 19:26:47;;;;;;;7.97;1.50;;;25.70;45.30;;;;;;20918069;28;20297;-66
2022/06/17 19:36:50;;;;;;;3.07;1.70;;;25.50;45.70;;;;;;20925741;28;20290;-68
2022/06/17 19:46:56;;;;;;;2.63;1.30;;;25.30;45.90;;;;;;20938269;28;20288;-76
2022/06/17 19:56:57;;;;;;;1.40;1.00;;;25.10;46.10;;;;;;20918770;28;20200;-75
2022/06/17 20:07:02;;;;;;;1.60;1.50;;;24.90;46.20;;;;;;20914496;28;20231;-76
2022/06/17 20:17:05;;;;;;;4.20;1.80;;;24.70;46.30;;;;;;20913563;28;20274;-78
2022/06/17 20:27:10;;;;;;;2.47;2.10;;;24.50;46.70;;;;;;20912771;28;20250;-76
2022/06/17 20:37:14;;;;;;;4.23;3.33;;;24.40;47.00;;;;;;20911608;28;20659;-72
2022/06/17 21:07:59;;;;;;;2.90;1.80;;;23.90;48.70;;;;;;20912051;28;20236;-66
2022/06/17 21:18:01;;;;;;;6.20;2.30;;;23.70;49.40;;;;;;20912840;28;20296;-67
2022/06/17 21:28:10;;;;;;;3.30;1.97;;;23.60;50.10;;;;;;20911792;28;20242;-66
2022/06/17 21:38:15;;;;;;;7.03;2.53;;;23.50;50.90;;;;;;20911581;28;20207;-66
2022/06/17 21:48:17;;;;;;;5.73;2.00;;;23.40;51.80;;;;;;20910698;28;20297;-67
2022/06/17 21:58:30;;;;;;;3.20;2.13;;;23.20;53.40;;;;;;20910462;28;20291;-67
2022/06/17 22:08:38;;;;;;;4.50;2.07;;;23.00;54.20;;;;;;20910042;28;20246;-67
2022/06/17 22:18:40;;;;;;;3.70;1.83;;;22.80;55.40;;;;;;20913086;28;20204;-67
2022/06/17 22:28:41;;;;;;;4.70;1.60;;;22.60;56.00;;;;;;20922918;28;20247;-67
2022/06/17 22:38:43;;;;;;;3.87;2.07;;;22.50;55.00;;;;;;20923500;28;20231;-67
2022/06/17 22:48:51;;;;;;;5.83;1.93;;;22.30;55.20;;;;;;20922574;28;20239;-66
2022/06/17 22:58:53;;;;;;;7.63;2.20;;;22.10;56.60;;;;;;20921971;28;20211;-66
2022/06/17 23:08:55;;;;;;;3.23;1.80;;;22.00;56.90;;;;;;20921240;28;20671;-66
2022/06/17 23:29:17;;;;;;;6.57;2.10;;;21.60;59.80;;;;;;20919114;28;20357;-73
2022/06/17 23:39:22;;;;;;;2.33;1.60;;;21.40;60.20;;;;;;20919352;28;20606;-72
2022/06/17 23:49:25;;;;;;;2.40;1.80;;;21.20;61.50;;;;;;20918003;28;20242;-67
2022/06/17 23:59:27;;;;;;;5.53;1.80;;;20.90;62.30;;;;;;20917647;28;20214;-69
